CheckWX is a tool to help pilots better visualize weather data.  It is not intended as a substitute for an official pre-flight weather briefing.

17:10:29 UTC

KORF TAF
Norfolk International Airport
Norfolk, Virginia, USA
KORF 181131Z 1812/1912 22011KT P6SM SCT250 FM181500 23011G18KT P6SM SCT050 BKN250 FM182100 22010KT P6SM VCSH BKN050 FM190400 20007KT P6SM SCT015 BKN060

Jun-18@
12:00 UTC

Jun-18 @ 12:00 UTC

Jun-18@
15:00 UTC

Jun-18 @ 15:00 UTC

KORF 181131Z 1812/1912 22011KT P6SM SCT250

Expired

Wind
  • 220° at 11 KTS
Cloud Levels
  • Scattered at 25,000' AGL

Jun-18@
15:00 UTC

Jun-18 @ 15:00 UTC

Jun-18@
21:00 UTC

Jun-18 @ 21:00 UTC

FM181500 23011G18KT P6SM SCT050 BKN250

From

From Standard forecast or significant change

Wind
  • 230° at 11 KTS
  • {Gusting to 18 KTS
Cloud Levels
  • Scattered at 5,000' AGL
  • Broken at 25,000' AGL

Jun-18@
21:00 UTC

Jun-18 @ 21:00 UTC

Jun-19@
04:00 UTC

Jun-19 @ 04:00 UTC

FM182100 22010KT P6SM VCSH BKN050

From

From Standard forecast or significant change

Wind
  • 220° at 10 KTS
Cloud Levels
  • Broken at 5,000' AGL

Jun-19@
04:00 UTC

Jun-19 @ 04:00 UTC

Jun-19@
12:00 UTC

Jun-19 @ 12:00 UTC

FM190400 20007KT P6SM SCT015 BKN060

From

From Standard forecast or significant change

Wind
  • 200° at 7 KTS
Cloud Levels
  • Scattered at 1,500' AGL
  • Broken at 6,000' AGL